Houghton, South Dakota
Current Conditions -  °F | °C
As of 7:53 PM on Saturday 25 Oct 2014 (Local Time) from KABR Reporting Station
Clear Clear  
Wind Chill: 48°   Ceiling: Unl
Heat Index: 48°   Visibility: 9mi
Dew Point: 31°   Wind: 3mph
Humidity: 52%   Direction: 110°ESE
Pressure: 30.05"   Gusts: NA
Location:  45.76°N, 98.21°W
Report Text: KABR 260053Z AUTO 11003KT 9SM CLR 09/M01 A3005 RMK AO2 SLP185 T00891006
Loading
Personal Weather Stations






























Interactive Weather Map
Tropical Storm Tracking
New forecast layout! Learn more

10-Day Weather Forecast

Advertisements
Track Severe Weather on mobile